createdAt,value
2019-06-27T00:01:38.496Z,99507.64
2019-06-27T00:04:07.595Z,99504.05
2019-06-27T00:06:36.799Z,99505.98
2019-06-27T00:09:09.086Z,99506.63
2019-06-27T00:11:37.815Z,99510.03
2019-06-27T00:14:06.867Z,99517.49
2019-06-27T00:16:35.750Z,99513.05
2019-06-27T00:19:04.547Z,99506.03
2019-06-27T00:21:33.354Z,99514.28
2019-06-27T00:24:02.071Z,99506.80
2019-06-27T00:26:30.813Z,99514.23
2019-06-27T00:29:02.049Z,99518.80
2019-06-27T00:31:30.183Z,99514.39
2019-06-27T00:33:59.369Z,99516.28
2019-06-27T00:36:28.273Z,99510.03
2019-06-27T00:38:56.997Z,99515.95
2019-06-27T00:41:25.735Z,99516.27
2019-06-27T00:43:54.473Z,99515.75
2019-06-27T00:46:23.203Z,99510.51
2019-06-27T00:48:51.952Z,99512.70
2019-06-27T00:51:20.691Z,99514.73
2019-06-27T00:53:49.440Z,99513.38
2019-06-27T00:56:18.147Z,99521.84
2019-06-27T00:58:46.979Z,99521.48
2019-06-27T01:01:15.710Z,99527.22
2019-06-27T01:03:44.413Z,99529.88
2019-06-27T01:06:13.287Z,99528.14
2019-06-27T01:08:42.187Z,99528.81
2019-06-27T01:11:11.014Z,99529.53
2019-06-27T01:13:39.755Z,99524.20
2019-06-27T01:16:08.783Z,99523.63
2019-06-27T01:18:37.571Z,99536.45
2019-06-27T01:21:06.385Z,99536.28
2019-06-27T01:23:35.214Z,99541.30
2019-06-27T01:26:04.018Z,99535.73
2019-06-27T01:28:32.766Z,99534.55
2019-06-27T01:31:01.567Z,99537.63
2019-06-27T01:33:30.312Z,99539.44
2019-06-27T01:35:59.100Z,99530.84
2019-06-27T01:38:27.821Z,99537.53
2019-06-27T01:40:56.594Z,99536.56
2019-06-27T01:43:25.313Z,99538.26
2019-06-27T01:45:56.389Z,99551.34
2019-06-27T01:48:25.168Z,99543.74
2019-06-27T01:50:53.891Z,99550.71
2019-06-27T01:53:22.668Z,99542.92
2019-06-27T01:55:51.517Z,99544.00
2019-06-27T01:58:20.331Z,99548.09
2019-06-27T02:00:49.083Z,99550.34
2019-06-27T02:03:17.907Z,99554.80
2019-06-27T02:05:46.653Z,99554.21
2019-06-27T02:08:15.487Z,99560.79
2019-06-27T02:10:44.235Z,99555.38
2019-06-27T02:13:12.982Z,99562.52
2019-06-27T02:15:42.136Z,99554.77
2019-06-27T02:18:10.915Z,99555.20
2019-06-27T02:20:39.704Z,99556.47
2019-06-27T02:23:08.468Z,99554.36
2019-06-27T02:25:37.221Z,99566.59
2019-06-27T02:28:06.138Z,99565.55
2019-06-27T02:30:44.566Z,99572.38
2019-06-27T02:33:13.572Z,99571.00
2019-06-27T02:35:42.578Z,99572.16
2019-06-27T02:38:11.613Z,99576.47
2019-06-27T02:40:40.650Z,99574.75
2019-06-27T02:43:09.426Z,99569.03
2019-06-27T02:45:38.252Z,99576.20
2019-06-27T02:48:07.149Z,99578.09
2019-06-27T02:50:42.961Z,99584.27
2019-06-27T02:53:14.871Z,99579.41
2019-06-27T02:55:44.102Z,99577.25
2019-06-27T02:58:29.558Z,99585.77
2019-06-27T03:01:04.659Z,99586.00
2019-06-27T03:03:34.305Z,99588.44
2019-06-27T03:06:03.963Z,99583.77
2019-06-27T03:08:32.767Z,99587.12
2019-06-27T03:11:01.600Z,99588.53
2019-06-27T03:13:30.477Z,99587.05
2019-06-27T03:15:59.213Z,99585.43
2019-06-27T03:18:28.068Z,99589.41
2019-06-27T03:20:56.788Z,99587.14
2019-06-27T03:23:25.562Z,99588.95
2019-06-27T03:25:54.352Z,99587.16
2019-06-27T03:28:23.122Z,99593.38
2019-06-27T03:30:52.612Z,99592.94
2019-06-27T03:33:21.381Z,99593.64
2019-06-27T03:35:50.303Z,99595.71
2019-06-27T03:38:19.309Z,99598.31
2019-06-27T03:40:48.074Z,99602.17
2019-06-27T03:43:16.943Z,99601.72
2019-06-27T03:45:45.663Z,99596.80
2019-06-27T03:48:15.414Z,99605.58
2019-06-27T03:50:44.177Z,99598.81
2019-06-27T03:53:12.905Z,99609.53
2019-06-27T03:55:41.630Z,99611.31
2019-06-27T03:58:10.356Z,99609.83
2019-06-27T04:00:39.198Z,99608.55
2019-06-27T04:03:07.992Z,99602.47
2019-06-27T04:05:36.736Z,99597.42
2019-06-27T04:08:05.482Z,99605.66
2019-06-27T04:10:34.604Z,99595.41
2019-06-27T04:13:03.322Z,99598.00
2019-06-27T04:15:32.059Z,99597.63
2019-06-27T04:18:01.084Z,99598.65
2019-06-27T04:20:29.842Z,99597.08
2019-06-27T04:22:58.642Z,99597.33
2019-06-27T04:25:27.512Z,99603.47
2019-06-27T04:27:59.945Z,99606.10
2019-06-27T04:30:26.833Z,99608.27
2019-06-27T04:32:55.788Z,99609.56
2019-06-27T04:35:24.610Z,99615.66
2019-06-27T04:37:53.408Z,99613.74
2019-06-27T04:40:22.455Z,99609.91
2019-06-27T04:42:51.249Z,99612.23
2019-06-27T04:45:20.007Z,99614.64
2019-06-27T04:47:48.877Z,99613.83
2019-06-27T04:50:17.660Z,99621.30
2019-06-27T04:52:46.437Z,99616.72
2019-06-27T04:55:15.260Z,99623.60
2019-06-27T04:57:44.008Z,99620.45
2019-06-27T05:00:19.623Z,99630.61
2019-06-27T05:02:48.339Z,99624.47
2019-06-27T05:05:17.160Z,99638.05
2019-06-27T05:07:45.878Z,99636.02
2019-06-27T05:10:14.798Z,99628.50
2019-06-27T05:12:43.678Z,99633.73
2019-06-27T05:15:12.408Z,99640.30
2019-06-27T05:17:41.111Z,99644.13
2019-06-27T05:20:10.029Z,99640.97
2019-06-27T05:22:38.746Z,99644.95
2019-06-27T05:25:07.833Z,99645.98
2019-06-27T05:27:36.537Z,99652.80
2019-06-27T05:30:09.898Z,99647.28
2019-06-27T05:32:36.064Z,99646.70
2019-06-27T05:35:05.089Z,99648.57
2019-06-27T05:37:33.960Z,99652.02
2019-06-27T05:40:02.729Z,99651.02
2019-06-27T05:42:31.508Z,99651.70
2019-06-27T05:45:00.231Z,99662.58
2019-06-27T05:47:29.267Z,99657.41
2019-06-27T05:49:57.980Z,99657.11
2019-06-27T05:52:26.786Z,99658.77
2019-06-27T05:54:55.574Z,99661.98
2019-06-27T05:57:24.343Z,99663.39
2019-06-27T05:59:53.239Z,99667.64
2019-06-27T06:02:22.045Z,99663.99
2019-06-27T06:04:50.787Z,99673.92
2019-06-27T06:07:19.938Z,99666.89
2019-06-27T06:09:49.020Z,99675.36
2019-06-27T06:12:17.815Z,99676.68
2019-06-27T06:14:46.574Z,99677.47
2019-06-27T06:17:15.303Z,99675.24
2019-06-27T06:19:44.043Z,99672.90
2019-06-27T06:22:12.799Z,99682.86
2019-06-27T06:24:41.648Z,99672.64
2019-06-27T06:27:10.342Z,99680.50
2019-06-27T06:29:39.126Z,99677.15
2019-06-27T06:32:07.875Z,99678.41
2019-06-27T06:34:36.704Z,99679.31
2019-06-27T06:37:07.983Z,99678.41
2019-06-27T06:39:36.028Z,99674.14
2019-06-27T06:42:04.899Z,99679.97
2019-06-27T06:44:33.817Z,99677.46
2019-06-27T06:47:02.566Z,99677.55
2019-06-27T06:49:31.296Z,99679.06
2019-06-27T06:52:00.650Z,99684.23
2019-06-27T06:54:29.634Z,99681.97
2019-06-27T06:56:58.401Z,99686.03
2019-06-27T06:59:27.251Z,99678.34
2019-06-27T07:01:55.997Z,99678.87
2019-06-27T07:04:25.006Z,99683.89
2019-06-27T07:06:53.788Z,99685.74
2019-06-27T07:09:22.518Z,99684.50
2019-06-27T07:11:51.233Z,99680.81
2019-06-27T07:14:19.933Z,99677.56
2019-06-27T07:16:48.665Z,99683.22
2019-06-27T07:19:17.376Z,99679.30
2019-06-27T07:21:46.112Z,99683.95
2019-06-27T07:24:14.822Z,99681.90
2019-06-27T07:26:43.719Z,99678.36
2019-06-27T07:29:12.469Z,99678.53
2019-06-27T07:31:41.216Z,99681.05
2019-06-27T07:34:09.934Z,99674.37
2019-06-27T07:36:38.720Z,99675.57
2019-06-27T07:39:07.484Z,99683.69
2019-06-27T07:41:36.403Z,99682.94
2019-06-27T07:44:05.211Z,99685.11
2019-06-27T07:46:33.965Z,99686.05
2019-06-27T07:49:02.758Z,99683.09
2019-06-27T07:51:31.530Z,99676.47
2019-06-27T07:54:00.790Z,99672.77
2019-06-27T07:56:29.768Z,99665.95
2019-06-27T07:58:58.537Z,99666.39
2019-06-27T08:01:35.167Z,99669.16
2019-06-27T08:03:57.717Z,99672.81
2019-06-27T08:06:26.573Z,99675.75
2019-06-27T08:08:55.425Z,99683.52
2019-06-27T08:11:24.168Z,99683.45
2019-06-27T08:13:52.967Z,99682.94
2019-06-27T08:16:21.755Z,99672.91
2019-06-27T08:18:50.623Z,99677.61
2019-06-27T08:21:19.405Z,99671.16
2019-06-27T08:23:48.173Z,99666.63
2019-06-27T08:26:16.993Z,99667.16
2019-06-27T08:28:45.742Z,99670.23
2019-06-27T08:31:14.685Z,99669.84
2019-06-27T08:33:43.468Z,99668.34
2019-06-27T08:36:12.185Z,99664.14
2019-06-27T08:38:40.935Z,99665.84
2019-06-27T08:41:09.722Z,99674.11
2019-06-27T08:43:38.613Z,99676.11
2019-06-27T08:46:07.377Z,99674.50
2019-06-27T08:48:36.207Z,99667.47
2019-06-27T08:51:05.152Z,99670.05
2019-06-27T08:53:33.865Z,99673.61
2019-06-27T08:56:02.796Z,99660.91
2019-06-27T08:58:31.534Z,99662.09
2019-06-27T09:01:00.253Z,99666.16
2019-06-27T09:03:29.012Z,99660.77
2019-06-27T09:05:57.750Z,99661.42
2019-06-27T09:08:26.489Z,99658.53
2019-06-27T09:10:55.263Z,99658.37
2019-06-27T09:13:24.003Z,99650.42
2019-06-27T09:15:52.728Z,99654.97
2019-06-27T09:18:21.451Z,99661.55
2019-06-27T09:20:50.163Z,99660.88
2019-06-27T09:23:18.912Z,99655.61
2019-06-27T09:25:48.023Z,99648.80
2019-06-27T09:28:16.743Z,99652.68
2019-06-27T09:30:45.576Z,99653.93
2019-06-27T09:33:14.313Z,99662.37
2019-06-27T09:35:43.046Z,99659.72
2019-06-27T09:38:11.887Z,99652.86
2019-06-27T09:40:40.729Z,99650.52
2019-06-27T09:43:09.563Z,99646.67
2019-06-27T09:45:38.796Z,99651.28
2019-06-27T09:48:07.667Z,99651.64
2019-06-27T09:50:36.374Z,99647.42
2019-06-27T09:53:05.194Z,99648.38
2019-06-27T09:55:34.107Z,99646.30
2019-06-27T09:58:03.143Z,99644.50
2019-06-27T10:00:32.081Z,99654.32
2019-06-27T10:03:00.864Z,99648.90
2019-06-27T10:05:29.882Z,99644.14
2019-06-27T10:07:58.621Z,99638.13
2019-06-27T10:10:27.404Z,99640.63
2019-06-27T10:12:56.127Z,99637.41
2019-06-27T10:15:25.002Z,99639.73
2019-06-27T10:17:54.112Z,99646.52
2019-06-27T10:20:23.307Z,99638.20
2019-06-27T10:22:52.159Z,99641.13
2019-06-27T10:25:20.995Z,99643.72
2019-06-27T10:27:49.808Z,99638.45
2019-06-27T10:30:20.105Z,99643.45
2019-06-27T10:32:59.250Z,99650.73
2019-06-27T10:35:19.615Z,99646.38
2019-06-27T10:37:48.375Z,99639.97
2019-06-27T10:40:17.168Z,99635.10
2019-06-27T10:42:46.025Z,99632.20
2019-06-27T10:45:15.104Z,99639.11
2019-06-27T10:47:43.841Z,99635.43
2019-06-27T10:50:12.833Z,99635.76
2019-06-27T10:52:41.868Z,99640.80
2019-06-27T10:55:11.172Z,99634.67
2019-06-27T10:57:40.012Z,99625.65
2019-06-27T11:00:08.970Z,99631.08
2019-06-27T11:02:37.787Z,99615.17
2019-06-27T11:05:06.978Z,99633.61
2019-06-27T11:07:35.799Z,99620.73
2019-06-27T11:10:05.366Z,99626.52
2019-06-27T11:12:34.103Z,99615.82
2019-06-27T11:15:02.894Z,99619.44
2019-06-27T11:17:31.636Z,99622.55
2019-06-27T11:20:00.830Z,99627.65
2019-06-27T11:22:29.584Z,99615.41
2019-06-27T11:24:59.688Z,99607.03
2019-06-27T11:27:28.567Z,99614.77
2019-06-27T11:29:57.312Z,99608.32
2019-06-27T11:32:26.089Z,99607.45
2019-06-27T11:34:54.948Z,99603.38
2019-06-27T11:37:23.662Z,99605.53
2019-06-27T11:39:52.409Z,99601.72
2019-06-27T11:42:21.150Z,99601.66
2019-06-27T11:44:49.899Z,99603.19
2019-06-27T11:47:18.711Z,99606.11
2019-06-27T11:49:47.730Z,99598.80
2019-06-27T11:52:16.596Z,99598.88
2019-06-27T11:54:45.418Z,99598.88
2019-06-27T11:57:14.142Z,99605.22
2019-06-27T11:59:42.874Z,99603.02
2019-06-27T12:02:11.653Z,99597.94
2019-06-27T12:04:40.458Z,99596.40
2019-06-27T12:07:09.164Z,99610.29
2019-06-27T12:09:37.912Z,99605.05
2019-06-27T12:12:06.658Z,99591.36
2019-06-27T12:14:35.442Z,99596.41
2019-06-27T12:17:04.326Z,99591.91
2019-06-27T12:19:33.047Z,99596.63
2019-06-27T12:22:01.815Z,99598.78
2019-06-27T12:24:30.561Z,99597.00
2019-06-27T12:26:59.303Z,99604.75
2019-06-27T12:29:28.379Z,99600.80
2019-06-27T12:31:57.472Z,99593.75
2019-06-27T12:34:26.220Z,99593.91
2019-06-27T12:36:55.000Z,99590.36
2019-06-27T12:39:23.713Z,99591.94
2019-06-27T12:41:52.582Z,99596.00
2019-06-27T12:44:21.281Z,99590.03
2019-06-27T12:46:50.137Z,99597.95
2019-06-27T12:49:18.876Z,99588.95
2019-06-27T12:51:47.606Z,99577.75
2019-06-27T12:54:16.321Z,99588.70
2019-06-27T12:56:45.094Z,99587.61
2019-06-27T12:59:13.826Z,99584.63
2019-06-27T13:01:42.534Z,99581.95
2019-06-27T13:04:22.874Z,99577.04
2019-06-27T13:06:41.737Z,99577.62
2019-06-27T13:09:10.510Z,99576.40
2019-06-27T13:11:39.269Z,99576.22
2019-06-27T13:14:07.992Z,99581.88
2019-06-27T13:16:36.801Z,99577.16
2019-06-27T13:19:05.610Z,99574.47
2019-06-27T13:21:34.328Z,99576.73
2019-06-27T13:24:03.045Z,99569.91
2019-06-27T13:26:31.866Z,99574.34
2019-06-27T13:29:00.646Z,99564.41
2019-06-27T13:31:29.396Z,99564.03
2019-06-27T13:33:58.229Z,99574.82
2019-06-27T13:36:26.963Z,99566.69
2019-06-27T13:38:55.711Z,99563.83
2019-06-27T13:41:24.441Z,99559.13
2019-06-27T13:43:53.441Z,99561.57
2019-06-27T13:46:22.166Z,99558.94
2019-06-27T13:48:51.232Z,99554.81
2019-06-27T13:51:19.973Z,99552.13
2019-06-27T13:53:48.700Z,99546.62
2019-06-27T13:56:17.439Z,99550.39
2019-06-27T13:58:46.214Z,99548.08
2019-06-27T14:01:15.262Z,99545.52
2019-06-27T14:03:49.174Z,99532.16
2019-06-27T14:06:14.636Z,99533.11
2019-06-27T14:08:43.352Z,99540.47
2019-06-27T14:11:12.076Z,99540.07
2019-06-27T14:13:40.807Z,99535.02
2019-06-27T14:16:09.537Z,99531.34
2019-06-27T14:18:38.552Z,99530.36
2019-06-27T14:21:07.739Z,99529.27
2019-06-27T14:23:36.565Z,99523.66
2019-06-27T14:26:05.423Z,99523.61
2019-06-27T14:28:34.305Z,99532.11
2019-06-27T14:31:03.475Z,99520.78
2019-06-27T14:33:32.541Z,99520.20
2019-06-27T14:36:01.349Z,99518.08
2019-06-27T14:38:30.086Z,99520.78
2019-06-27T14:40:59.240Z,99513.43
2019-06-27T14:43:28.275Z,99509.87
2019-06-27T14:45:57.022Z,99502.11
2019-06-27T14:48:25.761Z,99512.58
2019-06-27T14:50:54.556Z,99518.95
2019-06-27T14:53:23.617Z,99504.11
2019-06-27T14:55:52.347Z,99506.26
2019-06-27T14:58:21.072Z,99508.12
2019-06-27T15:00:49.944Z,99492.25
2019-06-27T15:03:18.709Z,99493.08
2019-06-27T15:05:47.497Z,99506.72
2019-06-27T15:08:16.216Z,99499.23
2019-06-27T15:10:44.991Z,99490.95
2019-06-27T15:13:14.106Z,99489.94
2019-06-27T15:15:42.942Z,99490.70
2019-06-27T15:18:11.741Z,99487.23
2019-06-27T15:20:40.470Z,99483.02
2019-06-27T15:23:09.327Z,99482.13
2019-06-27T15:25:38.109Z,99484.72
2019-06-27T15:28:07.105Z,99488.22
2019-06-27T15:30:35.838Z,99485.66
2019-06-27T15:33:04.585Z,99481.34
2019-06-27T15:35:37.747Z,99470.77
2019-06-27T15:38:04.123Z,99477.03
2019-06-27T15:40:32.908Z,99469.77
2019-06-27T15:43:01.748Z,99463.61
2019-06-27T15:45:46.536Z,99468.92
2019-06-27T15:48:16.211Z,99471.81
2019-06-27T15:50:45.049Z,99471.31
2019-06-27T15:53:13.764Z,99468.15
2019-06-27T15:55:42.511Z,99465.52
2019-06-27T15:58:11.315Z,99469.48
2019-06-27T16:00:40.131Z,99467.81
2019-06-27T16:03:08.888Z,99474.48
2019-06-27T16:05:37.841Z,99470.56
2019-06-27T16:08:06.638Z,99456.81
2019-06-27T16:10:35.615Z,99462.56
2019-06-27T16:13:04.521Z,99462.84
2019-06-27T16:29:20.964Z,99454.20
2019-06-27T16:31:49.689Z,99451.70
2019-06-27T16:34:18.567Z,99450.22
2019-06-27T16:36:47.378Z,99459.59
2019-06-27T16:39:16.131Z,99446.09
2019-06-27T16:41:44.860Z,99442.92
2019-06-27T16:44:13.615Z,99441.03
2019-06-27T16:46:42.338Z,99444.00
2019-06-27T16:49:11.179Z,99453.75
2019-06-27T16:51:39.939Z,99449.27
2019-06-27T16:54:08.845Z,99459.03
2019-06-27T16:56:37.731Z,99449.91
2019-06-27T16:59:07.607Z,99450.98
2019-06-27T17:01:36.468Z,99454.35
2019-06-27T17:04:05.551Z,99458.23
2019-06-27T17:06:42.123Z,99454.88
2019-06-27T17:09:06.036Z,99449.17
2019-06-27T17:11:34.720Z,99461.80
2019-06-27T17:14:03.539Z,99464.75
2019-06-27T17:16:32.691Z,99449.61
2019-06-27T17:19:01.426Z,99455.05
2019-06-27T17:21:30.180Z,99464.28
2019-06-27T17:23:58.910Z,99454.86
2019-06-27T17:26:27.649Z,99453.16
2019-06-27T17:28:56.375Z,99457.25
2019-06-27T17:31:25.401Z,99461.87
2019-06-27T17:33:54.178Z,99455.14
2019-06-27T17:36:22.909Z,99453.50
2019-06-27T17:38:51.653Z,99450.87
2019-06-27T17:41:20.618Z,99448.19
2019-06-27T17:43:49.481Z,99455.80
2019-06-27T17:46:19.343Z,99455.43
2019-06-27T17:48:48.080Z,99451.48
2019-06-27T17:51:16.815Z,99461.96
2019-06-27T17:53:45.543Z,99451.70
2019-06-27T17:56:14.624Z,99458.80
2019-06-27T17:58:43.364Z,99451.17
2019-06-27T18:01:12.243Z,99452.31
2019-06-27T18:03:41.102Z,99449.59
2019-06-27T18:06:09.859Z,99458.10
2019-06-27T18:08:38.585Z,99463.59
2019-06-27T18:11:07.375Z,99456.62
2019-06-27T18:13:36.397Z,99451.26
2019-06-27T18:16:05.273Z,99454.15
2019-06-27T18:18:34.296Z,99462.80
2019-06-27T18:21:03.099Z,99457.12
2019-06-27T18:23:31.913Z,99451.69
2019-06-27T18:26:00.897Z,99459.05
2019-06-27T18:28:30.011Z,99457.00
2019-06-27T18:30:59.007Z,99463.80
2019-06-27T18:33:28.087Z,99456.83
2019-06-27T18:35:56.897Z,99447.71
2019-06-27T18:38:25.679Z,99452.16
2019-06-27T18:40:54.501Z,99455.02
2019-06-27T18:43:23.332Z,99450.03
2019-06-27T18:45:52.431Z,99445.05
2019-06-27T18:48:21.252Z,99449.00
2019-06-27T18:50:50.419Z,99452.14
2019-06-27T18:53:19.169Z,99453.03
2019-06-27T18:55:47.885Z,99446.67
2019-06-27T18:58:16.971Z,99449.86
2019-06-27T19:00:45.787Z,99453.19
2019-06-27T19:03:14.648Z,99458.48
2019-06-27T19:05:43.408Z,99465.72
2019-06-27T19:08:12.160Z,99457.19
2019-06-27T19:10:41.228Z,99460.39
2019-06-27T19:13:10.409Z,99470.48
2019-06-27T19:15:39.148Z,99464.72
2019-06-27T19:18:27.238Z,99467.45
2019-06-27T19:20:56.829Z,99468.20
2019-06-27T19:23:49.673Z,99471.30
2019-06-27T19:26:18.411Z,99479.38
2019-06-27T19:28:47.155Z,99474.67
2019-06-27T19:31:16.186Z,99482.98
2019-06-27T19:33:44.941Z,99484.48
2019-06-27T19:36:13.762Z,99479.15
2019-06-27T19:38:42.504Z,99484.50
2019-06-27T19:41:11.298Z,99487.02
2019-06-27T19:43:40.114Z,99486.66
2019-06-27T19:46:08.881Z,99485.39
2019-06-27T19:48:37.654Z,99494.18
2019-06-27T19:51:06.422Z,99490.50
2019-06-27T19:53:35.273Z,99496.94
2019-06-27T19:56:04.296Z,99494.07
2019-06-27T19:58:33.073Z,99501.86
2019-06-27T20:01:01.842Z,99509.53
2019-06-27T20:03:30.712Z,99510.44
2019-06-27T20:05:59.467Z,99518.03
2019-06-27T20:08:28.290Z,99519.89
2019-06-27T20:10:57.272Z,99521.41
2019-06-27T20:13:25.995Z,99526.20
2019-06-27T20:15:54.806Z,99528.94
2019-06-27T20:18:23.720Z,99526.06
2019-06-27T20:20:52.440Z,99522.01
2019-06-27T20:23:21.603Z,99517.28
2019-06-27T20:25:50.528Z,99524.56
2019-06-27T20:28:19.513Z,99522.86
2019-06-27T20:30:48.253Z,99520.16
2019-06-27T20:33:16.978Z,99521.16
2019-06-27T20:35:46.165Z,99525.22
2019-06-27T20:38:14.890Z,99530.27
2019-06-27T20:40:43.717Z,99532.95
2019-06-27T20:43:12.437Z,99529.09
2019-06-27T20:45:41.162Z,99532.45
2019-06-27T20:48:09.905Z,99535.81
2019-06-27T20:50:38.831Z,99540.70
2019-06-27T20:53:07.589Z,99538.68
2019-06-27T20:55:36.313Z,99536.15
2019-06-27T20:58:05.439Z,99536.95
2019-06-27T21:00:34.267Z,99537.30
2019-06-27T21:03:03.207Z,99541.29
2019-06-27T21:05:31.997Z,99536.05
2019-06-27T21:08:00.803Z,99537.92
2019-06-27T21:10:29.550Z,99534.03
2019-06-27T21:12:58.359Z,99544.22
2019-06-27T21:15:27.475Z,99550.34
2019-06-27T21:17:56.338Z,99545.35
2019-06-27T21:20:25.299Z,99554.39
2019-06-27T21:22:54.051Z,99557.44
2019-06-27T21:25:22.927Z,99559.78
2019-06-27T21:27:52.151Z,99558.48
2019-06-27T21:30:23.084Z,99552.49
2019-06-27T21:32:51.864Z,99555.86
2019-06-27T21:35:20.819Z,99569.77
2019-06-27T21:37:50.645Z,99565.12
2019-06-27T21:40:20.054Z,99568.00
2019-06-27T21:42:48.808Z,99569.19
2019-06-27T21:45:17.783Z,99558.34
2019-06-27T21:47:46.508Z,99568.70
2019-06-27T21:50:15.553Z,99573.45
2019-06-27T21:52:44.592Z,99576.60
2019-06-27T21:55:13.405Z,99583.70
2019-06-27T21:57:42.159Z,99582.83
2019-06-27T22:00:12.251Z,99581.80
2019-06-27T22:02:41.139Z,99579.84
2019-06-27T22:05:10.441Z,99576.13
2019-06-27T22:07:39.295Z,99572.47
2019-06-27T22:10:10.094Z,99575.41
2019-06-27T22:12:38.797Z,99584.93
2019-06-27T22:15:08.092Z,99583.23
2019-06-27T22:17:39.766Z,99587.78
2019-06-27T22:20:14.899Z,99591.25
2019-06-27T22:22:39.414Z,99590.41
2019-06-27T22:25:08.539Z,99590.56
2019-06-27T22:27:37.367Z,99587.69
2019-06-27T22:30:06.501Z,99587.44
2019-06-27T22:32:35.447Z,99592.75
2019-06-27T22:35:05.326Z,99588.22
2019-06-27T22:37:33.485Z,99584.54
2019-06-27T22:40:20.217Z,99582.63
2019-06-27T22:43:06.630Z,99573.33
2019-06-27T22:45:53.606Z,99574.17
2019-06-27T22:48:22.012Z,99566.33
2019-06-27T22:51:08.225Z,99569.83
2019-06-27T22:53:42.003Z,99561.98
2019-06-27T22:56:11.035Z,99563.30
2019-06-27T22:58:39.867Z,99564.10
2019-06-27T23:01:08.637Z,99559.94
2019-06-27T23:03:37.548Z,99560.59
2019-06-27T23:06:06.449Z,99563.69
2019-06-27T23:08:35.287Z,99559.70
2019-06-27T23:11:04.006Z,99568.45
2019-06-27T23:13:32.763Z,99564.14
2019-06-27T23:16:01.534Z,99562.24
2019-06-27T23:18:30.314Z,99559.84
2019-06-27T23:20:59.046Z,99553.70
2019-06-27T23:23:28.155Z,99563.06
2019-06-27T23:25:56.866Z,99563.50
2019-06-27T23:28:25.938Z,99559.78
2019-06-27T23:30:54.657Z,99561.86
2019-06-27T23:33:23.408Z,99565.49
2019-06-27T23:35:52.482Z,99556.65
2019-06-27T23:38:21.242Z,99563.30
2019-06-27T23:40:49.982Z,99566.59
2019-06-27T23:43:18.764Z,99565.28
2019-06-27T23:45:47.895Z,99569.01
2019-06-27T23:48:16.633Z,99570.86
2019-06-27T23:50:45.382Z,99568.84
2019-06-27T23:53:14.122Z,99567.97
2019-06-27T23:55:42.843Z,99566.53
2019-06-27T23:58:11.600Z,99569.77
